Terminal Aerodrome Forecast
Issued by NWS

Home | Current Version | Previous Version | Text Only | Print | Product List | Glossary On
Versions: 1 2 3 4 5 6 7 8 9 10 11
000
FTUS45 KVEF 182320
TAFBIH
TAF
KBIH 182320Z 1900/1924 26025G35KT P6SM FEW100
     FM190200 35018G28KT P6SM VCSH SCT080
     FM191200 35018G28KT P6SM VCSH BKN080
     FM191800 36024G34KT P6SM VCSH BKN080=

USA.gov is the U.S. government's official web portal to all federal, state and local government web resources and services.